Airfield :
LOGIN :

Register | Disclaimer

   EN    FR    IT 

 










Legend :    VFR   Marginal VFR   IFR   Intensive IFR   Very Intensive IFR
Visi :
Ceiling :
>= 8 km
>= 3000ft
5 to 8 km
1000 to 3000 ft
1500m to 5 km
500 to 1000 ft
800 to 1500m
200 to 500 ft
< 800m
< 200 ft
Symbols :   Thunderstorms  Fog  Heavy snow  Heavy precipitations  Wind > 20 kt
SIGMETs :     Misc.  Thunderstorms  Icing  Turbulence  Mountain Waves  Volcanic Ashes






- Airport Elevation : 286 ft
- IATA code : FFD


EGVA - RAF Fairford

CURRENT METAR :
  • 200206Z AUTO 22018G23KT 9999 BKN015 OVC044 09/07 A2981 RMK AO2 BKN V OVC SLP100 $

EXPIRED METARs :
  • 200131Z AUTO 22014G22KT 9999 BKN015 BKN021 BKN028 OVC042 09/07 A2983 RMK AO2 CIG 015V042 BKN015 V SCT SLP106 $
  • 200056Z AUTO 22014G20KT 9999 SCT019 OVC040 08/07 A2984 RMK AO2 PK WND 22026/2357 SLP110 T00840069 $
  • 200051Z AUTO 22014G20KT 9999 SCT017 BKN022 OVC040 09/07 A2985 RMK AO2 CIG 017V022 SLP113 $
  • 200046Z AUTO 22014G22KT 9999 BKN017 BKN022 OVC038 09/07 A2985 RMK AO2 CIG 017V021 SLP113 $
  • 200031Z AUTO 22017G24KT 9999 FEW015 BKN021 BKN026 OVC038 09/07 A2985 RMK AO2 SLP113 $
  • 192356Z AUTO 22017KT 9999 OVC018 09/07 A2986 RMK AO2 CIG 017 RWY09 SLP117 T00860071 10086 20080 400860008 57018 $
  • 192336Z AUTO 22013KT 9999 SCT013 OVC020 08/07 A2986 RMK AO2 CIG 013V020 CIG 019 RWY09 SLP117 $

Expired Forecast.



MET'MAP, your aeronautical weather chart ! - Copyright ORBIFLY December 2007 - Disclaimer

ORBIFLY MET'MAP TEAM :

Programming & Development : Alexandra Zaïnal
Concept & original design : Baudouin d'Aumeries
Assistance for programming : Marc-Olivier Méhu
Technical & hardware support : Manuel Goepfert

Contact : metmap@orbifly.com




SOURCES & CREDITS :

   NOAA